sensor_id;sensor_type;location;lat;lon;timestamp;pressure;altitude;pressure_sealevel;temperature;humidity
6942;BME280;3510;43.200;27.920;2023-02-18T00:00:56;101591.56;;;11.96;44.84
6942;BME280;3510;43.200;27.920;2023-02-18T00:03:23;101584.06;;;11.78;44.52
6942;BME280;3510;43.200;27.920;2023-02-18T00:05:50;101582.56;;;11.80;44.80
6942;BME280;3510;43.200;27.920;2023-02-18T00:08:17;101540.38;;;11.97;44.18
6942;BME280;3510;43.200;27.920;2023-02-18T00:10:44;101571.50;;;12.25;43.67
6942;BME280;3510;43.200;27.920;2023-02-18T00:13:12;101570.13;;;12.47;43.20
6942;BME280;3510;43.200;27.920;2023-02-18T00:15:39;101542.50;;;12.30;43.04
6942;BME280;3510;43.200;27.920;2023-02-18T00:18:06;101561.53;;;12.26;43.64
6942;BME280;3510;43.200;27.920;2023-02-18T00:20:33;101569.53;;;12.50;43.24
6942;BME280;3510;43.200;27.920;2023-02-18T00:23:00;101563.66;;;12.41;43.66
6942;BME280;3510;43.200;27.920;2023-02-18T00:25:28;101551.34;;;12.16;44.14
6942;BME280;3510;43.200;27.920;2023-02-18T00:27:55;101552.03;;;12.05;44.69
6942;BME280;3510;43.200;27.920;2023-02-18T00:30:23;101544.69;;;12.35;44.07
6942;BME280;3510;43.200;27.920;2023-02-18T00:32:50;101531.59;;;12.02;44.49
6942;BME280;3510;43.200;27.920;2023-02-18T00:35:16;101491.84;;;12.18;43.72
6942;BME280;3510;43.200;27.920;2023-02-18T00:37:43;101534.22;;;12.60;43.55
6942;BME280;3510;43.200;27.920;2023-02-18T00:40:10;101511.97;;;12.56;42.89
6942;BME280;3510;43.200;27.920;2023-02-18T00:42:37;101529.53;;;12.83;42.50
6942;BME280;3510;43.200;27.920;2023-02-18T00:45:04;101498.69;;;12.77;42.13
6942;BME280;3510;43.200;27.920;2023-02-18T00:47:33;101494.25;;;12.75;42.22
6942;BME280;3510;43.200;27.920;2023-02-18T00:50:01;101522.19;;;12.87;42.82
6942;BME280;3510;43.200;27.920;2023-02-18T00:52:28;101521.59;;;12.60;43.44
6942;BME280;3510;43.200;27.920;2023-02-18T00:54:55;101480.31;;;11.93;44.33
6942;BME280;3510;43.200;27.920;2023-02-18T00:57:22;101516.22;;;11.90;44.58
6942;BME280;3510;43.200;27.920;2023-02-18T00:59:49;101499.72;;;11.94;44.70
6942;BME280;3510;43.200;27.920;2023-02-18T01:02:16;101515.97;;;11.87;44.65
6942;BME280;3510;43.200;27.920;2023-02-18T01:04:44;101502.66;;;11.71;45.16
6942;BME280;3510;43.200;27.920;2023-02-18T01:07:10;101503.16;;;11.94;44.77
6942;BME280;3510;43.200;27.920;2023-02-18T01:09:37;101471.63;;;11.80;44.63
6942;BME280;3510;43.200;27.920;2023-02-18T01:12:04;101493.16;;;11.77;44.87
6942;BME280;3510;43.200;27.920;2023-02-18T01:14:31;101487.25;;;11.68;44.99
6942;BME280;3510;43.200;27.920;2023-02-18T01:16:57;101449.78;;;11.34;44.53
6942;BME280;3510;43.200;27.920;2023-02-18T01:19:24;101483.38;;;11.71;44.58
6942;BME280;3510;43.200;27.920;2023-02-18T01:21:52;101481.13;;;11.55;44.64
6942;BME280;3510;43.200;27.920;2023-02-18T01:24:19;101488.31;;;11.42;44.81
6942;BME280;3510;43.200;27.920;2023-02-18T01:26:46;101483.06;;;11.77;44.53
6942;BME280;3510;43.200;27.920;2023-02-18T01:29:13;101470.38;;;11.67;44.65
6942;BME280;3510;43.200;27.920;2023-02-18T01:31:40;101467.72;;;11.65;44.79
6942;BME280;3510;43.200;27.920;2023-02-18T01:34:07;101484.63;;;11.38;45.32
6942;BME280;3510;43.200;27.920;2023-02-18T01:36:34;101479.84;;;11.42;45.27
6942;BME280;3510;43.200;27.920;2023-02-18T01:39:03;101465.22;;;11.56;45.66
6942;BME280;3510;43.200;27.920;2023-02-18T01:41:31;101471.25;;;11.67;45.25
6942;BME280;3510;43.200;27.920;2023-02-18T01:44:09;101476.22;;;11.29;45.92
6942;BME280;3510;43.200;27.920;2023-02-18T01:46:36;101465.91;;;11.18;46.02
6942;BME280;3510;43.200;27.920;2023-02-18T01:49:03;101483.19;;;11.23;45.96
6942;BME280;3510;43.200;27.920;2023-02-18T01:51:33;101478.44;;;11.35;45.83
6942;BME280;3510;43.200;27.920;2023-02-18T01:54:06;101403.72;;;11.08;45.60
6942;BME280;3510;43.200;27.920;2023-02-18T01:56:37;101484.38;;;11.54;45.60
6942;BME280;3510;43.200;27.920;2023-02-18T01:59:13;101480.84;;;11.52;45.70
6942;BME280;3510;43.200;27.920;2023-02-18T02:01:43;101473.97;;;11.60;45.37
6942;BME280;3510;43.200;27.920;2023-02-18T02:04:11;101466.66;;;11.44;45.85
6942;BME280;3510;43.200;27.920;2023-02-18T02:06:38;101456.84;;;11.94;44.80
6942;BME280;3510;43.200;27.920;2023-02-18T02:09:09;101410.53;;;11.55;44.59
6942;BME280;3510;43.200;27.920;2023-02-18T02:11:51;101444.38;;;11.49;45.18
6942;BME280;3510;43.200;27.920;2023-02-18T02:14:37;101437.66;;;11.30;45.67
6942;BME280;3510;43.200;27.920;2023-02-18T02:17:13;101417.25;;;11.27;45.26
6942;BME280;3510;43.200;27.920;2023-02-18T02:22:56;101447.91;;;11.97;43.80
6942;BME280;3510;43.200;27.920;2023-02-18T02:25:49;101448.06;;;12.18;43.27
6942;BME280;3510;43.200;27.920;2023-02-18T02:28:40;101451.94;;;12.14;42.81
6942;BME280;3510;43.200;27.920;2023-02-18T02:31:31;101437.81;;;12.74;41.55
6942;BME280;3510;43.200;27.920;2023-02-18T02:37:01;101441.94;;;13.13;39.87
6942;BME280;3510;43.200;27.920;2023-02-18T02:39:37;101439.66;;;13.16;39.42
6942;BME280;3510;43.200;27.920;2023-02-18T02:42:16;101428.84;;;13.48;38.77
6942;BME280;3510;43.200;27.920;2023-02-18T02:44:50;101426.84;;;13.54;38.63
6942;BME280;3510;43.200;27.920;2023-02-18T02:47:27;101437.31;;;13.69;37.53
6942;BME280;3510;43.200;27.920;2023-02-18T02:50:00;101437.16;;;13.88;37.38
6942;BME280;3510;43.200;27.920;2023-02-18T02:52:32;101431.06;;;14.06;37.24
6942;BME280;3510;43.200;27.920;2023-02-18T02:55:04;101440.50;;;14.19;37.08
6942;BME280;3510;43.200;27.920;2023-02-18T02:57:43;101432.13;;;13.77;38.43
6942;BME280;3510;43.200;27.920;2023-02-18T03:00:12;101435.31;;;13.65;38.98
6942;BME280;3510;43.200;27.920;2023-02-18T03:02:57;101439.22;;;13.61;38.86
6942;BME280;3510;43.200;27.920;2023-02-18T03:05:38;101427.72;;;13.54;39.06
6942;BME280;3510;43.200;27.920;2023-02-18T03:08:29;101424.03;;;13.20;39.61
6942;BME280;3510;43.200;27.920;2023-02-18T03:11:05;101430.75;;;13.30;39.79
6942;BME280;3510;43.200;27.920;2023-02-18T03:13:46;101436.28;;;12.66;40.89
6942;BME280;3510;43.200;27.920;2023-02-18T03:16:24;101391.13;;;12.90;40.38
6942;BME280;3510;43.200;27.920;2023-02-18T03:18:59;101419.63;;;12.78;41.20
6942;BME280;3510;43.200;27.920;2023-02-18T03:21:31;101417.13;;;12.49;41.32
6942;BME280;3510;43.200;27.920;2023-02-18T03:24:05;101430.69;;;12.31;42.16
6942;BME280;3510;43.200;27.920;2023-02-18T03:26:35;101428.94;;;12.30;42.21
6942;BME280;3510;43.200;27.920;2023-02-18T03:29:06;101375.53;;;12.25;41.09
6942;BME280;3510;43.200;27.920;2023-02-18T03:31:36;101417.00;;;12.77;40.81
6942;BME280;3510;43.200;27.920;2023-02-18T03:34:06;101406.59;;;12.64;40.50
6942;BME280;3510;43.200;27.920;2023-02-18T03:36:34;101420.19;;;12.95;39.64
6942;BME280;3510;43.200;27.920;2023-02-18T03:39:06;101412.78;;;13.17;38.96
6942;BME280;3510;43.200;27.920;2023-02-18T03:41:34;101405.22;;;13.47;37.96
6942;BME280;3510;43.200;27.920;2023-02-18T03:44:03;101407.09;;;13.60;37.90
6942;BME280;3510;43.200;27.920;2023-02-18T03:46:31;101411.25;;;13.70;37.57
6942;BME280;3510;43.200;27.920;2023-02-18T03:48:58;101399.91;;;13.65;36.91
6942;BME280;3510;43.200;27.920;2023-02-18T03:51:25;101396.97;;;13.60;36.91
6942;BME280;3510;43.200;27.920;2023-02-18T03:53:54;101395.41;;;13.83;36.58
6942;BME280;3510;43.200;27.920;2023-02-18T03:56:22;101409.66;;;14.13;35.57
6942;BME280;3510;43.200;27.920;2023-02-18T03:58:49;101414.34;;;14.08;36.27
6942;BME280;3510;43.200;27.920;2023-02-18T04:01:16;101406.28;;;13.92;36.21
6942;BME280;3510;43.200;27.920;2023-02-18T04:03:43;101399.59;;;13.82;36.54
6942;BME280;3510;43.200;27.920;2023-02-18T04:06:10;101406.81;;;13.88;36.23
6942;BME280;3510;43.200;27.920;2023-02-18T04:08:36;101403.88;;;13.93;36.46
6942;BME280;3510;43.200;27.920;2023-02-18T04:11:04;101411.78;;;13.55;37.27
6942;BME280;3510;43.200;27.920;2023-02-18T04:13:32;101410.22;;;13.78;36.53
6942;BME280;3510;43.200;27.920;2023-02-18T04:15:58;101381.28;;;13.74;36.31
6942;BME280;3510;43.200;27.920;2023-02-18T04:18:25;101401.84;;;13.89;36.34
6942;BME280;3510;43.200;27.920;2023-02-18T04:20:52;101394.09;;;14.08;35.77
6942;BME280;3510;43.200;27.920;2023-02-18T04:23:19;101393.78;;;14.25;35.56
6942;BME280;3510;43.200;27.920;2023-02-18T04:25:45;101397.28;;;14.27;35.54
6942;BME280;3510;43.200;27.920;2023-02-18T04:28:13;101382.53;;;14.54;34.96
6942;BME280;3510;43.200;27.920;2023-02-18T04:30:42;101391.03;;;14.44;35.17
6942;BME280;3510;43.200;27.920;2023-02-18T04:33:09;101391.66;;;14.42;35.21
6942;BME280;3510;43.200;27.920;2023-02-18T04:35:36;101381.47;;;14.62;34.48
6942;BME280;3510;43.200;27.920;2023-02-18T04:38:05;101365.13;;;14.37;34.64
6942;BME280;3510;43.200;27.920;2023-02-18T04:40:32;101377.34;;;14.42;35.05
6942;BME280;3510;43.200;27.920;2023-02-18T04:42:59;101366.88;;;14.70;34.45
6942;BME280;3510;43.200;27.920;2023-02-18T04:45:26;101372.00;;;14.60;35.00
6942;BME280;3510;43.200;27.920;2023-02-18T04:47:54;101358.16;;;14.66;34.58
6942;BME280;3510;43.200;27.920;2023-02-18T04:50:21;101362.75;;;14.94;34.26
6942;BME280;3510;43.200;27.920;2023-02-18T04:52:48;101370.91;;;14.68;34.32
6942;BME280;3510;43.200;27.920;2023-02-18T04:55:15;101371.44;;;14.86;34.21
6942;BME280;3510;43.200;27.920;2023-02-18T04:57:42;101355.00;;;15.14;34.05
6942;BME280;3510;43.200;27.920;2023-02-18T05:00:13;101257.47;;;14.64;33.86
6942;BME280;3510;43.200;27.920;2023-02-18T05:02:40;101354.84;;;15.01;33.59
6942;BME280;3510;43.200;27.920;2023-02-18T05:05:09;101357.34;;;15.35;33.39
6942;BME280;3510;43.200;27.920;2023-02-18T05:07:36;101340.63;;;14.91;34.27
6942;BME280;3510;43.200;27.920;2023-02-18T05:10:03;101346.69;;;15.05;34.07
6942;BME280;3510;43.200;27.920;2023-02-18T05:12:30;101354.13;;;14.80;33.88
6942;BME280;3510;43.200;27.920;2023-02-18T05:14:57;101327.53;;;15.09;33.75
6942;BME280;3510;43.200;27.920;2023-02-18T05:17:24;101349.03;;;15.02;33.49
6942;BME280;3510;43.200;27.920;2023-02-18T05:19:51;101356.75;;;15.04;33.83
6942;BME280;3510;43.200;27.920;2023-02-18T05:22:18;101363.59;;;15.16;33.47
6942;BME280;3510;43.200;27.920;2023-02-18T05:24:45;101364.94;;;15.23;33.56
6942;BME280;3510;43.200;27.920;2023-02-18T05:27:12;101353.19;;;15.35;33.44
6942;BME280;3510;43.200;27.920;2023-02-18T05:29:38;101306.34;;;14.85;33.18
6942;BME280;3510;43.200;27.920;2023-02-18T05:32:05;101351.16;;;15.19;33.50
6942;BME280;3510;43.200;27.920;2023-02-18T05:34:32;101334.94;;;15.06;33.36
6942;BME280;3510;43.200;27.920;2023-02-18T05:36:58;101336.19;;;15.22;33.26
6942;BME280;3510;43.200;27.920;2023-02-18T05:39:27;101361.00;;;15.38;33.11
6942;BME280;3510;43.200;27.920;2023-02-18T05:41:53;101336.06;;;15.21;33.02
6942;BME280;3510;43.200;27.920;2023-02-18T05:44:20;101364.16;;;15.69;32.54
6942;BME280;3510;43.200;27.920;2023-02-18T05:46:59;101363.72;;;15.99;31.75
6942;BME280;3510;43.200;27.920;2023-02-18T05:49:27;101365.00;;;15.46;32.56
6942;BME280;3510;43.200;27.920;2023-02-18T05:51:54;101365.44;;;15.53;32.54
6942;BME280;3510;43.200;27.920;2023-02-18T05:54:21;101363.84;;;15.77;32.34
6942;BME280;3510;43.200;27.920;2023-02-18T05:56:50;101330.16;;;15.79;31.73
6942;BME280;3510;43.200;27.920;2023-02-18T05:59:17;101304.78;;;15.79;31.68
6942;BME280;3510;43.200;27.920;2023-02-18T06:01:46;101365.50;;;15.88;31.74
6942;BME280;3510;43.200;27.920;2023-02-18T06:04:13;101356.19;;;16.12;31.51
6942;BME280;3510;43.200;27.920;2023-02-18T06:06:40;101357.72;;;16.21;31.26
6942;BME280;3510;43.200;27.920;2023-02-18T06:09:08;101328.06;;;15.97;31.46
6942;BME280;3510;43.200;27.920;2023-02-18T06:11:35;101327.03;;;16.18;31.01
6942;BME280;3510;43.200;27.920;2023-02-18T06:14:04;101349.66;;;16.15;31.52
6942;BME280;3510;43.200;27.920;2023-02-18T06:16:31;101348.44;;;16.22;31.29
6942;BME280;3510;43.200;27.920;2023-02-18T06:18:58;101314.03;;;15.90;31.50
6942;BME280;3510;43.200;27.920;2023-02-18T06:21:25;101350.69;;;15.94;32.08
6942;BME280;3510;43.200;27.920;2023-02-18T06:23:52;101359.25;;;15.61;32.35
6942;BME280;3510;43.200;27.920;2023-02-18T06:26:18;101312.94;;;15.40;32.22
6942;BME280;3510;43.200;27.920;2023-02-18T06:28:45;101335.53;;;15.37;32.62
6942;BME280;3510;43.200;27.920;2023-02-18T06:31:13;101347.59;;;15.75;32.50
6942;BME280;3510;43.200;27.920;2023-02-18T06:33:40;101338.78;;;15.93;32.17
6942;BME280;3510;43.200;27.920;2023-02-18T06:36:09;101324.75;;;15.98;32.11
6942;BME280;3510;43.200;27.920;2023-02-18T06:38:37;101323.09;;;15.87;32.09
6942;BME280;3510;43.200;27.920;2023-02-18T06:41:04;101327.66;;;16.28;31.84
6942;BME280;3510;43.200;27.920;2023-02-18T06:43:31;101323.31;;;15.90;32.19
6942;BME280;3510;43.200;27.920;2023-02-18T06:45:58;101323.44;;;16.40;31.21
6942;BME280;3510;43.200;27.920;2023-02-18T06:48:27;101325.91;;;16.27;31.63
6942;BME280;3510;43.200;27.920;2023-02-18T06:50:55;101324.81;;;16.23;31.37
6942;BME280;3510;43.200;27.920;2023-02-18T06:53:22;101324.41;;;16.17;31.54
6942;BME280;3510;43.200;27.920;2023-02-18T06:55:48;101331.41;;;16.33;31.31
6942;BME280;3510;43.200;27.920;2023-02-18T06:58:15;101333.13;;;16.45;31.60
6942;BME280;3510;43.200;27.920;2023-02-18T07:00:42;101306.75;;;16.68;30.85
6942;BME280;3510;43.200;27.920;2023-02-18T07:03:10;101336.41;;;16.93;30.53
6942;BME280;3510;43.200;27.920;2023-02-18T07:05:39;101338.50;;;16.87;30.57
6942;BME280;3510;43.200;27.920;2023-02-18T07:08:06;101336.41;;;16.93;30.36
6942;BME280;3510;43.200;27.920;2023-02-18T07:10:33;101325.91;;;17.13;30.22
6942;BME280;3510;43.200;27.920;2023-02-18T07:13:00;101312.16;;;16.48;30.81
6942;BME280;3510;43.200;27.920;2023-02-18T07:15:27;101313.84;;;17.11;30.10
6942;BME280;3510;43.200;27.920;2023-02-18T07:17:54;101327.97;;;17.46;29.63
6942;BME280;3510;43.200;27.920;2023-02-18T07:20:22;101322.88;;;17.46;29.46
6942;BME280;3510;43.200;27.920;2023-02-18T07:22:51;101305.38;;;17.37;29.45
6942;BME280;3510;43.200;27.920;2023-02-18T07:25:18;101321.41;;;17.49;29.65
6942;BME280;3510;43.200;27.920;2023-02-18T07:27:45;101320.69;;;17.12;30.17
6942;BME280;3510;43.200;27.920;2023-02-18T07:30:12;101323.59;;;17.43;29.97
6942;BME280;3510;43.200;27.920;2023-02-18T07:32:39;101308.69;;;17.49;30.09
6942;BME280;3510;43.200;27.920;2023-02-18T07:35:06;101313.19;;;17.53;30.01
6942;BME280;3510;43.200;27.920;2023-02-18T07:37:33;101314.75;;;17.64;30.06
6942;BME280;3510;43.200;27.920;2023-02-18T07:40:01;101314.00;;;17.52;30.18
6942;BME280;3510;43.200;27.920;2023-02-18T07:42:28;101322.50;;;17.53;30.64
6942;BME280;3510;43.200;27.920;2023-02-18T07:44:55;101290.19;;;17.38;30.71
6942;BME280;3510;43.200;27.920;2023-02-18T07:47:22;101283.25;;;17.23;31.01
6942;BME280;3510;43.200;27.920;2023-02-18T07:49:48;101322.50;;;17.39;31.19
6942;BME280;3510;43.200;27.920;2023-02-18T07:52:15;101322.41;;;17.38;31.46
6942;BME280;3510;43.200;27.920;2023-02-18T07:54:42;101313.22;;;17.93;30.81
6942;BME280;3510;43.200;27.920;2023-02-18T07:57:10;101296.59;;;17.85;30.85
6942;BME280;3510;43.200;27.920;2023-02-18T07:59:37;101292.44;;;17.60;31.42
6942;BME280;3510;43.200;27.920;2023-02-18T08:02:04;101298.13;;;17.30;31.83
6942;BME280;3510;43.200;27.920;2023-02-18T08:04:32;101305.09;;;17.59;31.42
6942;BME280;3510;43.200;27.920;2023-02-18T08:06:59;101295.00;;;17.47;31.73
6942;BME280;3510;43.200;27.920;2023-02-18T08:09:26;101296.94;;;17.38;31.24
6942;BME280;3510;43.200;27.920;2023-02-18T08:11:53;101280.44;;;17.84;30.54
6942;BME280;3510;43.200;27.920;2023-02-18T08:14:21;101265.13;;;17.71;30.41
6942;BME280;3510;43.200;27.920;2023-02-18T08:16:47;101263.47;;;17.85;30.30
6942;BME280;3510;43.200;27.920;2023-02-18T08:19:15;101263.75;;;18.03;30.37
6942;BME280;3510;43.200;27.920;2023-02-18T08:21:42;101282.22;;;18.13;30.21
6942;BME280;3510;43.200;27.920;2023-02-18T08:24:08;101275.22;;;17.83;30.44
6942;BME280;3510;43.200;27.920;2023-02-18T08:26:35;101252.81;;;18.19;30.09
6942;BME280;3510;43.200;27.920;2023-02-18T08:29:03;101266.50;;;18.49;29.56
6942;BME280;3510;43.200;27.920;2023-02-18T08:31:32;101269.63;;;18.58;30.16
6942;BME280;3510;43.200;27.920;2023-02-18T08:33:59;101264.16;;;18.67;29.71
6942;BME280;3510;43.200;27.920;2023-02-18T08:36:26;101236.84;;;18.79;29.36
6942;BME280;3510;43.200;27.920;2023-02-18T08:38:53;101262.63;;;18.98;29.50
6942;BME280;3510;43.200;27.920;2023-02-18T08:41:20;101249.09;;;18.84;29.54
6942;BME280;3510;43.200;27.920;2023-02-18T08:43:47;101246.72;;;18.73;29.57
6942;BME280;3510;43.200;27.920;2023-02-18T08:46:15;101245.50;;;18.96;29.09
6942;BME280;3510;43.200;27.920;2023-02-18T08:48:44;101244.31;;;19.05;28.84
6942;BME280;3510;43.200;27.920;2023-02-18T08:51:13;101249.94;;;19.29;28.67
6942;BME280;3510;43.200;27.920;2023-02-18T08:53:41;101252.13;;;19.38;28.55
6942;BME280;3510;43.200;27.920;2023-02-18T08:56:09;101240.50;;;19.43;28.49
6942;BME280;3510;43.200;27.920;2023-02-18T08:58:39;101249.13;;;19.45;28.53
6942;BME280;3510;43.200;27.920;2023-02-18T09:01:08;101247.84;;;19.53;28.74
6942;BME280;3510;43.200;27.920;2023-02-18T09:03:36;101246.97;;;19.53;28.47
6942;BME280;3510;43.200;27.920;2023-02-18T09:06:04;101221.44;;;19.68;28.05
6942;BME280;3510;43.200;27.920;2023-02-18T09:08:31;101212.19;;;19.86;27.66
6942;BME280;3510;43.200;27.920;2023-02-18T09:11:01;101249.13;;;19.91;27.68
6942;BME280;3510;43.200;27.920;2023-02-18T09:13:30;101235.94;;;20.16;26.74
6942;BME280;3510;43.200;27.920;2023-02-18T09:15:59;101200.94;;;20.15;26.31
6942;BME280;3510;43.200;27.920;2023-02-18T09:18:26;101227.88;;;20.92;25.53
6942;BME280;3510;43.200;27.920;2023-02-18T09:20:55;101215.06;;;21.27;24.87
6942;BME280;3510;43.200;27.920;2023-02-18T09:23:24;101213.19;;;21.79;24.30
6942;BME280;3510;43.200;27.920;2023-02-18T09:25:52;101206.00;;;22.28;23.74
6942;BME280;3510;43.200;27.920;2023-02-18T09:28:19;101191.03;;;21.61;24.30
6942;BME280;3510;43.200;27.920;2023-02-18T09:30:46;101198.66;;;21.24;24.58
6942;BME280;3510;43.200;27.920;2023-02-18T09:33:13;101200.72;;;21.49;24.49
6942;BME280;3510;43.200;27.920;2023-02-18T09:35:42;101197.97;;;21.44;24.36
6942;BME280;3510;43.200;27.920;2023-02-18T09:38:10;101163.19;;;21.49;24.02
6942;BME280;3510;43.200;27.920;2023-02-18T09:40:42;101149.31;;;21.44;24.01
6942;BME280;3510;43.200;27.920;2023-02-18T09:43:18;101195.59;;;21.86;24.27
6942;BME280;3510;43.200;27.920;2023-02-18T09:45:49;101181.09;;;21.32;24.89
6942;BME280;3510;43.200;27.920;2023-02-18T09:48:17;101179.00;;;21.59;24.64
6942;BME280;3510;43.200;27.920;2023-02-18T09:50:47;101185.50;;;21.52;24.21
6942;BME280;3510;43.200;27.920;2023-02-18T09:53:17;101130.47;;;21.62;23.25
6942;BME280;3510;43.200;27.920;2023-02-18T09:55:47;101162.41;;;21.89;23.21
6942;BME280;3510;43.200;27.920;2023-02-18T09:58:17;101174.06;;;22.41;22.41
6942;BME280;3510;43.200;27.920;2023-02-18T10:00:46;101159.00;;;22.49;22.48
6942;BME280;3510;43.200;27.920;2023-02-18T10:03:17;101175.75;;;22.21;22.96
6942;BME280;3510;43.200;27.920;2023-02-18T10:05:52;101169.97;;;22.25;22.84
6942;BME280;3510;43.200;27.920;2023-02-18T10:08:24;101164.53;;;22.38;22.51
6942;BME280;3510;43.200;27.920;2023-02-18T10:10:53;101173.97;;;22.18;22.73
6942;BME280;3510;43.200;27.920;2023-02-18T10:13:23;101116.94;;;22.05;22.93
6942;BME280;3510;43.200;27.920;2023-02-18T10:15:52;101157.34;;;22.51;22.56
6942;BME280;3510;43.200;27.920;2023-02-18T10:18:25;101149.91;;;22.57;22.61
6942;BME280;3510;43.200;27.920;2023-02-18T10:21:00;101160.56;;;22.06;22.87
6942;BME280;3510;43.200;27.920;2023-02-18T10:23:30;101154.41;;;22.41;22.70
6942;BME280;3510;43.200;27.920;2023-02-18T10:26:02;101139.97;;;22.43;22.74
6942;BME280;3510;43.200;27.920;2023-02-18T10:28:34;101143.66;;;22.50;22.54
6942;BME280;3510;43.200;27.920;2023-02-18T10:31:04;101157.28;;;22.49;22.75
6942;BME280;3510;43.200;27.920;2023-02-18T10:33:39;101125.47;;;22.44;22.91
6942;BME280;3510;43.200;27.920;2023-02-18T10:36:20;101122.88;;;22.65;22.64
6942;BME280;3510;43.200;27.920;2023-02-18T10:39:02;101157.03;;;23.06;22.65
6942;BME280;3510;43.200;27.920;2023-02-18T10:41:41;101151.69;;;22.80;22.93
6942;BME280;3510;43.200;27.920;2023-02-18T10:44:18;101154.88;;;23.16;22.79
6942;BME280;3510;43.200;27.920;2023-02-18T10:46:57;101142.09;;;22.96;23.00
6942;BME280;3510;43.200;27.920;2023-02-18T10:49:38;101114.06;;;23.02;22.97
6942;BME280;3510;43.200;27.920;2023-02-18T10:52:13;101137.97;;;23.22;23.13
6942;BME280;3510;43.200;27.920;2023-02-18T10:54:49;101126.72;;;23.42;22.85
6942;BME280;3510;43.200;27.920;2023-02-18T10:57:19;101143.19;;;23.02;23.49
6942;BME280;3510;43.200;27.920;2023-02-18T10:59:55;101127.28;;;22.90;23.26
6942;BME280;3510;43.200;27.920;2023-02-18T11:02:24;101136.03;;;23.38;23.10
6942;BME280;3510;43.200;27.920;2023-02-18T11:04:54;101111.56;;;23.48;22.98
6942;BME280;3510;43.200;27.920;2023-02-18T11:07:25;101135.28;;;24.13;22.30
6942;BME280;3510;43.200;27.920;2023-02-18T11:09:53;101127.47;;;24.10;22.98
6942;BME280;3510;43.200;27.920;2023-02-18T11:12:26;101124.47;;;23.98;22.70
6942;BME280;3510;43.200;27.920;2023-02-18T11:15:15;101106.09;;;23.63;23.47
6942;BME280;3510;43.200;27.920;2023-02-18T11:17:44;101123.13;;;23.83;23.53
6942;BME280;3510;43.200;27.920;2023-02-18T11:20:24;101098.75;;;23.98;23.73
6942;BME280;3510;43.200;27.920;2023-02-18T11:22:56;101108.66;;;24.11;23.66
6942;BME280;3510;43.200;27.920;2023-02-18T11:25:25;101117.19;;;23.84;24.45
6942;BME280;3510;43.200;27.920;2023-02-18T11:27:56;101119.78;;;23.86;24.46
6942;BME280;3510;43.200;27.920;2023-02-18T11:30:26;101112.28;;;23.22;25.62
6942;BME280;3510;43.200;27.920;2023-02-18T11:32:59;101115.91;;;23.51;25.35
6942;BME280;3510;43.200;27.920;2023-02-18T11:35:31;101092.25;;;23.13;25.85
6942;BME280;3510;43.200;27.920;2023-02-18T11:38:00;101107.72;;;23.37;25.65
6942;BME280;3510;43.200;27.920;2023-02-18T11:40:30;101066.00;;;22.98;25.87
6942;BME280;3510;43.200;27.920;2023-02-18T11:43:11;101136.25;;;23.67;25.37
6942;BME280;3510;43.200;27.920;2023-02-18T11:45:38;101089.66;;;23.35;25.64
6942;BME280;3510;43.200;27.920;2023-02-18T11:48:07;101096.50;;;23.81;24.91
6942;BME280;3510;43.200;27.920;2023-02-18T11:50:34;101040.25;;;23.42;25.31
6942;BME280;3510;43.200;27.920;2023-02-18T11:53:25;101065.06;;;23.42;25.64
6942;BME280;3510;43.200;27.920;2023-02-18T11:55:54;101068.72;;;23.02;25.69
6942;BME280;3510;43.200;27.920;2023-02-18T11:58:23;101072.06;;;23.46;25.62
6942;BME280;3510;43.200;27.920;2023-02-18T12:00:51;101073.50;;;23.86;25.05
6942;BME280;3510;43.200;27.920;2023-02-18T12:03:27;101022.97;;;23.38;25.40
6942;BME280;3510;43.200;27.920;2023-02-18T12:05:57;101043.84;;;23.70;25.21
6942;BME280;3510;43.200;27.920;2023-02-18T12:08:27;101036.78;;;23.90;25.22
6942;BME280;3510;43.200;27.920;2023-02-18T12:11:01;101041.78;;;23.85;25.07
6942;BME280;3510;43.200;27.920;2023-02-18T12:13:33;101035.25;;;23.95;25.18
6942;BME280;3510;43.200;27.920;2023-02-18T12:16:10;101055.38;;;23.81;25.19
6942;BME280;3510;43.200;27.920;2023-02-18T12:18:52;101034.25;;;23.91;25.30
6942;BME280;3510;43.200;27.920;2023-02-18T12:21:32;101050.38;;;24.11;24.98
6942;BME280;3510;43.200;27.920;2023-02-18T12:24:11;101041.56;;;24.05;25.37
6942;BME280;3510;43.200;27.920;2023-02-18T12:26:48;101031.75;;;24.19;25.12
6942;BME280;3510;43.200;27.920;2023-02-18T12:29:39;101026.25;;;23.82;25.50
6942;BME280;3510;43.200;27.920;2023-02-18T12:32:17;101018.16;;;23.96;25.44
6942;BME280;3510;43.200;27.920;2023-02-18T12:35:00;101049.44;;;23.84;25.76
6942;BME280;3510;43.200;27.920;2023-02-18T12:40:32;101042.03;;;23.93;25.69
6942;BME280;3510;43.200;27.920;2023-02-18T12:43:11;101028.78;;;23.57;26.19
6942;BME280;3510;43.200;27.920;2023-02-18T12:45:56;101039.72;;;23.75;26.21
6942;BME280;3510;43.200;27.920;2023-02-18T12:48:37;101056.25;;;23.82;26.23
6942;BME280;3510;43.200;27.920;2023-02-18T12:51:15;101048.69;;;23.38;27.07
6942;BME280;3510;43.200;27.920;2023-02-18T12:53:55;100976.72;;;22.90;27.02
6942;BME280;3510;43.200;27.920;2023-02-18T12:56:39;101048.69;;;23.38;26.81
6942;BME280;3510;43.200;27.920;2023-02-18T12:59:19;101044.59;;;24.19;25.89
6942;BME280;3510;43.200;27.920;2023-02-18T13:02:03;101033.03;;;23.56;26.92
6942;BME280;3510;43.200;27.920;2023-02-18T13:04:45;101016.16;;;24.14;25.79
6942;BME280;3510;43.200;27.920;2023-02-18T13:07:45;101025.47;;;23.61;26.75
6942;BME280;3510;43.200;27.920;2023-02-18T13:10:28;101037.94;;;23.50;26.53
6942;BME280;3510;43.200;27.920;2023-02-18T13:12:59;101026.31;;;23.60;26.77
6942;BME280;3510;43.200;27.920;2023-02-18T13:15:35;101026.03;;;23.76;26.71
6942;BME280;3510;43.200;27.920;2023-02-18T13:18:07;101025.13;;;23.74;26.74
6942;BME280;3510;43.200;27.920;2023-02-18T13:20:39;101025.69;;;23.91;26.51
6942;BME280;3510;43.200;27.920;2023-02-18T13:23:15;101027.47;;;24.45;25.76
6942;BME280;3510;43.200;27.920;2023-02-18T13:25:43;101032.78;;;23.73;26.57